Time;durP1;ratioP1;P1;durP2;ratioP2;P2;SDS_P1;SDS_P2;PMS_P1;PMS_P2;Temp;Humidity;BMP_temperature;BMP_pressure;BME280_temperature;BME280_humidity;BME280_pressure;Samples;Min_cycle;Max_cycle;Signal;HPM_P1;HPM_P2
2023/03/09 00:00:53;;;;;;;13.60;6.72;;;;;;;9.16;100.00;99581.06;5047634;28;20044;-72
2023/03/09 00:03:20;;;;;;;11.32;6.68;;;;;;;9.16;100.00;99588.88;5047311;28;20041;-72
2023/03/09 00:05:54;;;;;;;11.60;6.38;;;;;;;9.13;100.00;99597.78;5036655;28;20029;-72
2023/03/09 00:08:20;;;;;;;11.65;6.72;;;;;;;9.10;100.00;99592.91;5040122;28;20041;-72
2023/03/09 00:10:48;;;;;;;16.67;6.57;;;;;;;9.11;100.00;99591.94;5037875;28;20030;-72
2023/03/09 00:13:13;;;;;;;11.05;6.50;;;;;;;9.12;100.00;99598.75;5045273;28;20111;-72
2023/03/09 00:15:38;;;;;;;10.95;6.10;;;;;;;9.14;100.00;99598.59;5045295;28;20043;-73
2023/03/09 00:18:04;;;;;;;12.20;7.53;;;;;;;9.18;100.00;99605.13;5048151;28;20033;-73
2023/03/09 00:20:29;;;;;;;12.30;6.72;;;;;;;9.21;100.00;99604.81;5027520;28;20060;-73
2023/03/09 00:22:55;;;;;;;14.13;8.32;;;;;;;9.23;100.00;99605.47;5045793;28;20028;-73
2023/03/09 00:25:21;;;;;;;15.38;6.20;;;;;;;9.23;100.00;99613.28;5045353;28;20091;-72
2023/03/09 00:27:52;;;;;;;18.65;7.43;;;;;;;9.21;100.00;99615.22;5052808;28;20024;-72
2023/03/09 00:30:19;;;;;;;10.68;6.55;;;;;;;9.19;100.00;99612.78;5040637;28;20037;-73
2023/03/09 00:32:45;;;;;;;9.95;6.70;;;;;;;9.23;100.00;99610.66;5054837;28;20111;-73
2023/03/09 00:35:10;;;;;;;9.50;5.43;;;;;;;9.23;100.00;99603.69;5037244;28;20235;-73
2023/03/09 00:37:39;;;;;;;13.40;6.47;;;;;;;9.20;100.00;99608.38;5040305;28;20459;-73
2023/03/09 00:40:09;;;;;;;10.32;5.65;;;;;;;9.19;100.00;99598.97;5035501;28;20030;-72
2023/03/09 00:42:38;;;;;;;14.85;6.43;;;;;;;9.17;100.00;99595.69;5041448;28;20042;-73
2023/03/09 00:45:05;;;;;;;14.82;6.30;;;;;;;9.16;100.00;99594.88;5033993;28;20101;-73
2023/03/09 00:47:31;;;;;;;16.63;5.75;;;;;;;9.21;100.00;99597.03;5032199;28;20069;-73
2023/03/09 00:49:56;;;;;;;9.48;5.75;;;;;;;9.26;100.00;99598.19;5038643;28;20437;-73
2023/03/09 00:52:22;;;;;;;14.98;6.78;;;;;;;9.27;100.00;99597.22;5051626;28;20032;-73
2023/03/09 00:54:49;;;;;;;12.25;5.90;;;;;;;9.22;100.00;99586.47;5035811;28;20030;-73
2023/03/09 00:57:14;;;;;;;12.70;5.72;;;;;;;9.24;100.00;99584.53;5032086;28;20111;-73
2023/03/09 00:59:44;;;;;;;11.38;5.65;;;;;;;9.26;100.00;99597.38;5031990;28;20425;-73
2023/03/09 01:02:10;;;;;;;12.98;4.88;;;;;;;9.28;100.00;99596.25;5038982;28;20033;-73
2023/03/09 01:04:35;;;;;;;11.52;6.25;;;;;;;9.30;100.00;99591.69;5040339;28;20040;-73
2023/03/09 01:07:01;;;;;;;8.43;6.15;;;;;;;9.27;100.00;99589.41;5040225;28;20429;-73
2023/03/09 01:09:26;;;;;;;9.15;6.13;;;;;;;9.22;100.00;99596.06;5040800;28;20033;-72
2023/03/09 01:11:51;;;;;;;14.00;6.57;;;;;;;9.19;100.00;99589.38;5024620;28;20029;-73
2023/03/09 01:14:17;;;;;;;10.65;5.90;;;;;;;9.24;100.00;99594.09;5033875;28;20420;-73
2023/03/09 01:16:42;;;;;;;13.43;6.90;;;;;;;9.26;100.00;99597.38;5036701;28;20120;-73
2023/03/09 01:19:08;;;;;;;15.65;6.38;;;;;;;9.27;100.00;99593.78;5032172;28;20064;-73
2023/03/09 01:21:33;;;;;;;11.55;6.50;;;;;;;9.24;100.00;99592.31;5031874;28;20422;-73
2023/03/09 01:23:58;;;;;;;17.17;6.80;;;;;;;9.25;100.00;99593.13;5040317;28;20183;-73
2023/03/09 01:26:24;;;;;;;15.52;7.10;;;;;;;9.23;100.00;99600.28;5040629;28;20531;-73
2023/03/09 01:28:49;;;;;;;13.57;6.88;;;;;;;9.22;100.00;99596.88;5034745;28;21946;-73
2023/03/09 01:31:15;;;;;;;14.85;6.95;;;;;;;9.21;100.00;99589.22;5034085;28;20030;-73
2023/03/09 01:33:43;;;;;;;13.90;6.82;;;;;;;9.24;100.00;99583.72;5030640;28;20075;-73
2023/03/09 01:36:13;;;;;;;13.88;6.85;;;;;;;9.21;100.00;99584.84;5044803;28;20044;-73
2023/03/09 01:38:38;;;;;;;14.00;6.20;;;;;;;9.24;100.00;99594.94;5034605;28;20108;-73
2023/03/09 01:41:04;;;;;;;14.65;7.05;;;;;;;9.24;100.00;99596.72;5039193;28;20497;-73
2023/03/09 01:43:47;;;;;;;10.80;5.85;;;;;;;9.22;100.00;99596.88;5031233;28;20393;-72
2023/03/09 01:46:21;;;;;;;13.02;6.03;;;;;;;9.24;100.00;99591.50;5045518;28;20026;-73
2023/03/09 01:48:54;;;;;;;11.00;5.03;;;;;;;9.32;100.00;99596.75;5034171;28;20071;-72
2023/03/09 01:51:25;;;;;;;17.27;5.97;;;;;;;9.26;100.00;99594.75;5042917;28;20068;-72
2023/03/09 01:53:52;;;;;;;11.98;6.47;;;;;;;9.21;100.00;99597.03;5038610;28;20033;-72
2023/03/09 01:56:20;;;;;;;16.80;6.35;;;;;;;9.21;100.00;99589.22;5045280;28;20049;-72
2023/03/09 01:58:47;;;;;;;13.23;6.72;;;;;;;9.19;100.00;99583.38;5046129;28;20040;-72
2023/03/09 02:01:12;;;;;;;16.27;6.45;;;;;;;9.21;100.00;99578.81;5044515;28;20028;-72
2023/03/09 02:03:42;;;;;;;14.05;6.75;;;;;;;9.20;100.00;99575.41;5045115;28;20526;-73
2023/03/09 02:06:18;;;;;;;14.90;6.32;;;;;;;9.20;100.00;99574.59;5041778;28;20494;-72
2023/03/09 02:09:21;;;;;;;16.40;6.82;;;;;;;9.20;100.00;99567.63;5045418;28;20059;-72
2023/03/09 02:11:47;;;;;;;12.43;6.32;;;;;;;9.21;100.00;99573.63;5041805;28;20477;-72
2023/03/09 02:14:13;;;;;;;13.75;6.85;;;;;;;9.22;100.00;99568.28;5033001;28;20037;-72
2023/03/09 02:16:38;;;;;;;17.00;8.02;;;;;;;9.24;100.00;99581.13;5035829;28;20028;-72
2023/03/09 02:19:09;;;;;;;15.80;7.75;;;;;;;9.24;100.00;99573.31;5047376;28;21026;-72
2023/03/09 02:22:04;;;;;;;13.55;8.23;;;;;;;9.24;100.00;99578.50;5042331;28;20029;-72
2023/03/09 02:24:59;;;;;;;19.48;10.07;;;;;;;9.24;100.00;99575.91;5024045;28;20079;-72
2023/03/09 02:27:27;;;;;;;13.80;8.93;;;;;;;9.22;100.00;99564.84;5046932;28;20041;-69
2023/03/09 02:29:53;;;;;;;14.95;9.15;;;;;;;9.22;100.00;99565.69;5043434;28;20028;-73
2023/03/09 02:32:19;;;;;;;17.35;8.93;;;;;;;9.24;100.00;99555.13;5038044;28;20492;-72
2023/03/09 02:34:45;;;;;;;18.13;8.90;;;;;;;9.24;100.00;99549.94;5044109;28;20108;-72
2023/03/09 02:37:22;;;;;;;18.45;10.45;;;;;;;9.23;100.00;99545.69;5045379;28;20111;-73
2023/03/09 02:39:49;;;;;;;20.90;10.57;;;;;;;9.18;100.00;99540.16;5040796;28;20450;-73
2023/03/09 02:42:16;;;;;;;18.73;9.48;;;;;;;9.18;100.00;99540.97;5041771;28;20032;-73
2023/03/09 02:44:43;;;;;;;19.75;9.50;;;;;;;9.21;100.00;99545.84;5042977;28;20079;-73
2023/03/09 02:47:13;;;;;;;16.90;9.15;;;;;;;9.18;100.00;99546.16;5039369;28;20043;-73
2023/03/09 02:49:38;;;;;;;21.17;9.35;;;;;;;9.18;100.00;99540.16;5042850;28;20519;-73
2023/03/09 02:52:04;;;;;;;22.85;9.52;;;;;;;9.17;100.00;99528.94;5048883;28;20033;-73
2023/03/09 02:54:30;;;;;;;20.85;10.10;;;;;;;9.15;100.00;99525.69;5048688;28;20025;-73
2023/03/09 02:56:55;;;;;;;19.10;10.15;;;;;;;9.14;100.00;99520.66;5046930;28;20045;-73
2023/03/09 02:59:20;;;;;;;15.90;9.00;;;;;;;9.16;100.00;99534.31;5048670;28;20120;-73
2023/03/09 03:01:46;;;;;;;23.20;8.65;;;;;;;9.19;100.00;99534.00;5047963;28;20029;-73
2023/03/09 03:04:11;;;;;;;20.95;8.68;;;;;;;9.21;100.00;99532.03;5047213;28;20044;-73
2023/03/09 03:06:37;;;;;;;14.30;8.95;;;;;;;9.22;100.00;99542.28;5048829;28;20041;-73
2023/03/09 03:09:02;;;;;;;23.42;9.57;;;;;;;9.23;100.00;99541.31;5047985;28;20047;-73
2023/03/09 03:11:27;;;;;;;23.88;9.02;;;;;;;9.22;100.00;99550.09;5047751;28;20033;-73
2023/03/09 03:13:54;;;;;;;18.30;9.23;;;;;;;9.22;100.00;99544.06;5046949;28;20059;-73
2023/03/09 03:16:20;;;;;;;16.88;9.07;;;;;;;9.22;100.00;99549.25;5050901;28;20116;-73
2023/03/09 03:18:45;;;;;;;20.63;9.35;;;;;;;9.21;100.00;99555.44;5049460;28;20493;-73
2023/03/09 03:21:11;;;;;;;18.52;8.95;;;;;;;9.22;100.00;99546.66;5052331;28;20032;-73
2023/03/09 03:23:36;;;;;;;19.15;10.02;;;;;;;9.24;100.00;99542.13;5052560;28;20025;-73
2023/03/09 03:26:09;;;;;;;20.55;10.02;;;;;;;9.23;100.00;99545.69;5051194;28;20515;-73
2023/03/09 03:28:35;;;;;;;22.50;9.68;;;;;;;9.25;100.00;99538.56;5055706;28;20052;-73
2023/03/09 03:31:00;;;;;;;23.98;10.63;;;;;;;9.27;100.00;99544.41;5043418;28;20476;-73
2023/03/09 03:33:26;;;;;;;24.70;10.20;;;;;;;9.28;100.00;99533.03;5051833;28;20043;-73
2023/03/09 03:35:51;;;;;;;22.67;9.77;;;;;;;9.31;100.00;99541.34;5050038;28;20119;-73
2023/03/09 03:38:17;;;;;;;24.25;11.05;;;;;;;9.29;100.00;99534.66;5053509;28;20037;-74
2023/03/09 03:40:42;;;;;;;19.92;9.95;;;;;;;9.31;100.00;99533.53;5050283;28;20152;-74
2023/03/09 03:43:08;;;;;;;22.13;10.40;;;;;;;9.31;100.00;99532.72;5051847;28;20055;-74
2023/03/09 03:45:33;;;;;;;21.13;9.38;;;;;;;9.32;100.00;99535.16;5033023;28;20432;-74
2023/03/09 03:47:59;;;;;;;24.88;10.82;;;;;;;9.26;100.00;99528.00;5046795;28;20480;-73
2023/03/09 03:50:24;;;;;;;21.58;10.93;;;;;;;9.24;100.00;99527.34;5052181;28;20037;-73
2023/03/09 03:52:50;;;;;;;28.98;10.57;;;;;;;9.23;100.00;99519.69;5051358;28;20060;-73
2023/03/09 03:55:15;;;;;;;22.60;9.68;;;;;;;9.20;100.00;99520.84;5049703;28;20094;-73
2023/03/09 03:57:41;;;;;;;20.85;9.93;;;;;;;9.18;100.00;99512.38;5052380;28;20175;-73
2023/03/09 04:00:10;;;;;;;28.00;11.23;;;;;;;9.16;100.00;99508.31;5051305;28;20029;-73
2023/03/09 04:02:36;;;;;;;30.13;11.02;;;;;;;9.16;100.00;99516.09;5044789;28;20029;-73
2023/03/09 04:05:03;;;;;;;22.05;10.15;;;;;;;9.20;100.00;99517.41;5048077;28;20090;-73
2023/03/09 04:07:28;;;;;;;21.63;9.57;;;;;;;9.21;100.00;99521.66;5047541;28;20040;-73
2023/03/09 04:09:53;;;;;;;17.45;10.27;;;;;;;9.21;100.00;99508.66;5047470;28;20041;-73
2023/03/09 04:12:19;;;;;;;25.77;9.70;;;;;;;9.20;100.00;99509.63;5050900;28;20032;-73
2023/03/09 04:14:44;;;;;;;25.15;11.10;;;;;;;9.21;100.00;99500.84;5050048;28;20047;-73
2023/03/09 04:17:10;;;;;;;30.65;11.02;;;;;;;9.20;100.00;99491.44;5048488;28;20037;-73
2023/03/09 04:19:36;;;;;;;31.25;11.23;;;;;;;9.18;100.00;99493.38;5051650;28;20091;-73
2023/03/09 04:22:01;;;;;;;35.08;11.68;;;;;;;9.14;100.00;99479.88;5049181;28;20037;-73
2023/03/09 04:24:27;;;;;;;21.05;11.93;;;;;;;9.14;100.00;99463.47;5052662;28;20025;-73
2023/03/09 04:26:52;;;;;;;25.75;11.75;;;;;;;9.17;100.00;99455.38;5042959;28;20029;-73
2023/03/09 04:29:18;;;;;;;21.38;12.25;;;;;;;9.18;100.00;99457.81;5049643;28;20029;-73
2023/03/09 04:31:43;;;;;;;23.65;12.43;;;;;;;9.20;100.00;99458.47;5045285;28;20361;-73
2023/03/09 04:34:10;;;;;;;23.70;14.25;;;;;;;9.20;100.00;99458.47;5051619;28;20029;-73
2023/03/09 04:36:36;;;;;;;26.42;15.43;;;;;;;9.22;100.00;99460.91;5048491;28;20044;-73
2023/03/09 04:39:04;;;;;;;28.20;15.23;;;;;;;9.22;100.00;99458.31;5037233;28;20037;-73
2023/03/09 04:41:31;;;;;;;116.97;20.95;;;;;;;9.24;100.00;99462.38;5048952;28;20060;-73
2023/03/09 04:43:57;;;;;;;35.10;13.63;;;;;;;9.24;100.00;99459.75;5029970;28;20025;-73
2023/03/09 04:46:22;;;;;;;28.10;15.52;;;;;;;9.27;100.00;99463.84;5054666;28;20463;-73
2023/03/09 04:48:48;;;;;;;32.92;15.65;;;;;;;9.23;100.00;99457.31;5049183;28;20087;-73
2023/03/09 04:51:13;;;;;;;31.42;15.30;;;;;;;9.22;100.00;99453.09;5050203;28;20388;-73
2023/03/09 04:53:39;;;;;;;25.40;13.98;;;;;;;9.20;100.00;99445.47;5052758;28;20415;-73
2023/03/09 04:56:04;;;;;;;32.58;14.65;;;;;;;9.20;100.00;99457.66;5046438;28;20051;-73
2023/03/09 04:58:30;;;;;;;24.42;14.07;;;;;;;9.24;100.00;99449.38;5049496;28;20044;-73
2023/03/09 05:00:55;;;;;;;33.70;14.82;;;;;;;9.25;100.00;99460.59;5046395;28;20397;-73
2023/03/09 05:03:21;;;;;;;18.73;12.23;;;;;;;9.24;100.00;99449.38;5048727;28;20028;-73
2023/03/09 05:05:47;;;;;;;33.88;15.60;;;;;;;9.22;100.00;99443.53;5044998;28;20146;-73
2023/03/09 05:08:12;;;;;;;24.55;14.65;;;;;;;9.21;100.00;99460.09;5038922;28;20103;-73
2023/03/09 05:10:37;;;;;;;26.65;15.95;;;;;;;9.23;100.00;99457.31;5044926;28;20464;-73
2023/03/09 05:13:03;;;;;;;48.72;16.55;;;;;;;9.26;100.00;99450.03;5045852;28;20099;-73
2023/03/09 05:15:28;;;;;;;32.97;16.00;;;;;;;9.29;100.00;99444.50;5049224;28;20037;-73
2023/03/09 05:17:53;;;;;;;44.40;18.67;;;;;;;9.28;100.00;99440.28;5049105;28;20056;-73
2023/03/09 05:20:19;;;;;;;52.15;19.02;;;;;;;9.30;100.00;99446.13;5034985;28;20370;-72
2023/03/09 05:22:44;;;;;;;32.75;16.27;;;;;;;9.28;100.00;99445.47;5044675;28;20079;-73
2023/03/09 05:25:10;;;;;;;72.32;19.88;;;;;;;9.24;100.00;99440.75;5051457;28;20409;-73
2023/03/09 05:27:36;;;;;;;30.95;16.92;;;;;;;9.21;100.00;99433.28;5051375;28;20485;-73
2023/03/09 05:30:02;;;;;;;22.30;13.50;;;;;;;9.21;100.00;99430.69;5046114;28;20939;-73
2023/03/09 05:32:27;;;;;;;24.48;13.07;;;;;;;9.24;100.00;99438.16;5049711;28;20037;-73
2023/03/09 05:34:53;;;;;;;23.52;13.93;;;;;;;9.25;100.00;99429.38;5048309;28;20041;-73
2023/03/09 05:37:18;;;;;;;26.33;13.35;;;;;;;9.25;100.00;99429.38;5050185;28;20060;-73
2023/03/09 05:39:44;;;;;;;20.92;12.75;;;;;;;9.24;100.00;99425.16;5047985;28;20076;-73
2023/03/09 05:42:09;;;;;;;21.20;12.15;;;;;;;9.26;100.00;99431.00;5050892;28;20029;-73
2023/03/09 05:44:35;;;;;;;27.65;13.52;;;;;;;9.28;100.00;99437.69;5046984;28;20441;-73
2023/03/09 05:47:01;;;;;;;29.95;16.15;;;;;;;9.27;100.00;99432.66;5046016;28;20480;-73
2023/03/09 05:49:27;;;;;;;33.55;16.85;;;;;;;9.25;100.00;99435.41;5040756;28;20036;-73
2023/03/09 05:51:54;;;;;;;44.78;17.65;;;;;;;9.24;100.00;99438.16;5058742;28;20406;-73
2023/03/09 05:54:19;;;;;;;31.38;15.20;;;;;;;9.22;100.00;99446.13;5051329;28;20029;-73
2023/03/09 05:56:45;;;;;;;27.83;16.48;;;;;;;9.22;100.00;99442.72;5025944;28;20056;-73
2023/03/09 05:59:10;;;;;;;34.35;16.67;;;;;;;9.21;100.00;99441.06;5043096;28;20028;-73
2023/03/09 06:01:36;;;;;;;32.63;17.30;;;;;;;9.19;100.00;99441.25;5042612;28;20029;-72
2023/03/09 06:04:02;;;;;;;31.88;18.13;;;;;;;9.19;100.00;99446.44;5048142;28;20373;-70
2023/03/09 06:06:27;;;;;;;32.63;16.23;;;;;;;9.22;100.00;99440.09;5049425;28;20064;-70
2023/03/09 06:08:54;;;;;;;34.95;16.30;;;;;;;9.24;100.00;99443.38;5048260;28;20477;-72
2023/03/09 06:11:20;;;;;;;140.65;23.38;;;;;;;9.27;100.00;99453.44;5045861;28;20092;-73
2023/03/09 06:13:45;;;;;;;24.05;14.90;;;;;;;9.28;100.00;99450.69;5041876;28;21786;-73
2023/03/09 06:16:14;;;;;;;23.65;14.25;;;;;;;9.25;100.00;99448.41;5048695;28;20033;-73
2023/03/09 06:18:40;;;;;;;35.58;14.77;;;;;;;9.29;100.00;99456.69;5041925;28;20033;-72
2023/03/09 06:21:07;;;;;;;24.10;13.05;;;;;;;9.29;100.00;99457.50;5046228;28;20032;-72
2023/03/09 06:23:35;;;;;;;28.45;13.70;;;;;;;9.29;100.00;99456.69;5048347;28;20161;-72
2023/03/09 06:26:02;;;;;;;18.13;12.30;;;;;;;9.27;100.00;99446.44;5047231;28;20151;-72
2023/03/09 06:28:27;;;;;;;15.05;10.75;;;;;;;9.26;100.00;99447.44;5047101;28;20028;-72
2023/03/09 06:30:53;;;;;;;17.13;11.27;;;;;;;9.25;100.00;99445.00;5045364;28;20134;-73
2023/03/09 06:33:18;;;;;;;17.70;10.05;;;;;;;9.26;100.00;99441.41;5046880;28;20136;-73
2023/03/09 06:35:44;;;;;;;17.45;10.13;;;;;;;9.28;100.00;99449.88;5047925;28;20033;-72
2023/03/09 06:38:09;;;;;;;13.65;8.43;;;;;;;9.27;100.00;99448.25;5040655;28;20059;-72
2023/03/09 06:40:35;;;;;;;14.73;8.65;;;;;;;9.26;100.00;99455.22;5047158;28;20066;-73
2023/03/09 06:43:00;;;;;;;13.35;7.57;;;;;;;9.27;100.00;99446.44;5043951;28;20083;-72
2023/03/09 06:45:26;;;;;;;13.88;7.20;;;;;;;9.26;100.00;99441.41;5045507;28;20044;-73
2023/03/09 06:47:56;;;;;;;13.88;8.35;;;;;;;9.26;100.00;99454.41;5044908;28;20451;-72
2023/03/09 06:50:23;;;;;;;9.55;6.75;;;;;;;9.27;100.00;99461.22;5051895;28;20028;-73
2023/03/09 06:52:49;;;;;;;11.52;5.70;;;;;;;9.28;100.00;99465.47;5024500;28;20503;-73
2023/03/09 06:55:15;;;;;;;9.23;5.28;;;;;;;9.28;100.00;99468.06;5041919;28;20045;-73
2023/03/09 06:57:40;;;;;;;10.43;5.80;;;;;;;9.29;100.00;99474.88;5042641;28;20041;-73
2023/03/09 07:00:09;;;;;;;8.85;5.43;;;;;;;9.32;100.00;99474.56;5039552;28;20064;-73
2023/03/09 07:02:34;;;;;;;8.00;5.18;;;;;;;9.32;100.00;99480.56;5038220;28;20119;-73
2023/03/09 07:04:59;;;;;;;9.02;4.93;;;;;;;9.29;100.00;99473.09;5042232;28;20384;-73
2023/03/09 07:07:25;;;;;;;7.30;4.80;;;;;;;9.29;100.00;99473.09;5037736;28;20032;-73
2023/03/09 07:09:50;;;;;;;10.35;4.97;;;;;;;9.29;100.00;99475.69;5034457;28;20544;-73
2023/03/09 07:12:16;;;;;;;8.07;5.15;;;;;;;9.29;100.00;99477.47;5019312;28;20389;-73
2023/03/09 07:14:41;;;;;;;8.73;5.63;;;;;;;9.29;100.00;99472.28;5036800;28;20124;-73
2023/03/09 07:17:12;;;;;;;7.43;6.05;;;;;;;9.31;100.00;99465.13;5042242;28;20547;-73
2023/03/09 07:19:37;;;;;;;10.50;6.43;;;;;;;9.33;100.00;99463.19;5033243;28;20048;-73
2023/03/09 07:22:02;;;;;;;8.55;6.40;;;;;;;9.35;100.00;99476.84;5036816;28;20481;-73
2023/03/09 07:24:28;;;;;;;9.55;6.60;;;;;;;9.36;100.00;99478.47;5038268;28;20025;-73
2023/03/09 07:26:53;;;;;;;11.15;6.88;;;;;;;9.35;100.00;99474.25;5024037;28;20033;-73
2023/03/09 07:29:19;;;;;;;13.80;6.88;;;;;;;9.36;100.00;99478.47;5039868;28;20487;-73
2023/03/09 07:31:45;;;;;;;10.02;6.57;;;;;;;9.36;100.00;99473.28;5040018;28;20033;-73
2023/03/09 07:34:11;;;;;;;10.90;6.13;;;;;;;9.39;100.00;99479.94;5042331;28;20435;-73
2023/03/09 07:36:36;;;;;;;15.20;7.10;;;;;;;9.40;100.00;99464.19;5041537;28;20128;-73
2023/03/09 07:39:02;;;;;;;15.35;8.00;;;;;;;9.42;100.00;99467.44;5040487;28;20036;-72
2023/03/09 07:41:27;;;;;;;11.73;6.00;;;;;;;9.44;100.00;99475.88;5045049;28;20070;-72
2023/03/09 07:43:53;;;;;;;10.38;5.55;;;;;;;9.47;100.00;99479.94;5039884;28;20117;-73
2023/03/09 07:46:18;;;;;;;10.63;6.10;;;;;;;9.51;100.00;99486.44;5040522;28;20037;-71
2023/03/09 07:48:44;;;;;;;10.23;5.20;;;;;;;9.52;100.00;99488.06;5049134;28;20025;-72
2023/03/09 07:51:11;;;;;;;12.35;6.13;;;;;;;9.50;100.00;99490.00;5045104;28;20068;-72
2023/03/09 07:53:39;;;;;;;7.57;5.53;;;;;;;9.50;100.00;99505.59;5038831;28;20029;-72
2023/03/09 07:56:06;;;;;;;7.97;5.45;;;;;;;9.50;100.00;99514.22;5036532;28;20112;-73
2023/03/09 07:58:35;;;;;;;11.65;5.50;;;;;;;9.51;100.00;99510.66;5041115;28;20040;-73
2023/03/09 08:01:02;;;;;;;9.90;5.70;;;;;;;9.53;100.00;99505.28;5035573;28;20029;-72
2023/03/09 08:03:28;;;;;;;15.00;6.32;;;;;;;9.57;100.00;99517.00;5047022;28;20491;-73
2023/03/09 08:05:55;;;;;;;14.15;6.43;;;;;;;9.60;100.00;99522.69;5045924;28;20034;-72
2023/03/09 08:08:28;;;;;;;9.50;5.97;;;;;;;9.61;100.00;99523.50;5050166;28;20044;-71
2023/03/09 08:10:54;;;;;;;14.02;6.05;;;;;;;9.62;100.00;99525.94;5050270;28;20467;-71
2023/03/09 08:13:21;;;;;;;8.07;5.13;;;;;;;9.60;100.00;99527.06;5038994;28;20029;-72
2023/03/09 08:15:48;;;;;;;10.45;5.20;;;;;;;9.62;100.00;99520.75;5046311;28;20046;-72
2023/03/09 08:18:14;;;;;;;10.02;5.82;;;;;;;9.68;100.00;99519.28;5049144;28;20099;-72
2023/03/09 08:20:40;;;;;;;9.98;5.70;;;;;;;9.67;100.00;99516.84;5047931;28;20029;-72
2023/03/09 08:23:06;;;;;;;11.10;5.18;;;;;;;9.66;100.00;99526.44;5041110;28;20037;-72
2023/03/09 08:25:31;;;;;;;10.75;5.00;;;;;;;9.70;100.00;99537.34;5043432;28;20056;-72
2023/03/09 08:27:58;;;;;;;13.23;5.50;;;;;;;9.71;100.00;99538.97;5030989;28;20033;-72
2023/03/09 08:30:23;;;;;;;9.73;4.93;;;;;;;9.71;100.00;99539.78;5048896;28;20523;-73
2023/03/09 08:32:50;;;;;;;14.10;4.78;;;;;;;9.72;100.00;99540.59;5048844;28;20036;-73
2023/03/09 08:35:22;;;;;;;9.63;5.15;;;;;;;9.72;100.00;99543.19;5050559;28;20056;-73
2023/03/09 08:37:48;;;;;;;12.10;5.50;;;;;;;9.73;100.00;99552.63;5043585;28;20033;-72
2023/03/09 08:40:15;;;;;;;10.07;5.50;;;;;;;9.70;100.00;99547.72;5044781;28;20040;-73
2023/03/09 08:42:42;;;;;;;10.90;7.10;;;;;;;9.74;100.00;99554.25;5047022;28;20064;-73
2023/03/09 08:45:09;;;;;;;13.48;5.43;;;;;;;9.76;100.00;99552.28;5047948;28;20024;-73
2023/03/09 08:47:35;;;;;;;11.30;4.72;;;;;;;9.77;100.00;99546.94;5034245;28;20063;-73
2023/03/09 08:50:00;;;;;;;10.60;5.25;;;;;;;9.80;100.00;99532.78;5046560;28;20473;-73
2023/03/09 08:52:26;;;;;;;13.10;5.35;;;;;;;9.82;100.00;99538.66;5050583;28;20460;-73
2023/03/09 08:54:51;;;;;;;11.25;4.93;;;;;;;9.85;100.00;99539.13;5047227;28;20071;-73
2023/03/09 08:57:17;;;;;;;11.25;5.20;;;;;;;9.91;100.00;99535.06;5049539;28;20052;-69
2023/03/09 08:59:43;;;;;;;13.52;4.68;;;;;;;9.91;100.00;99533.28;5065650;28;20060;-69
2023/03/09 09:02:13;;;;;;;11.43;4.90;;;;;;;9.92;100.00;99531.50;5064486;28;20067;-69
2023/03/09 09:04:41;;;;;;;12.23;4.25;;;;;;;9.96;100.00;99528.38;5048330;28;20438;-69
2023/03/09 09:07:07;;;;;;;10.73;4.60;;;;;;;10.01;100.00;99519.28;5051756;28;20384;-70
2023/03/09 09:09:33;;;;;;;12.30;4.40;;;;;;;10.09;100.00;99527.91;5071973;28;20098;-69
2023/03/09 09:11:59;;;;;;;10.10;4.88;;;;;;;10.09;100.00;99538.31;5054958;28;20471;-69
2023/03/09 09:14:25;;;;;;;11.23;5.05;;;;;;;10.08;100.00;99539.28;5055209;28;20103;-69
2023/03/09 09:16:50;;;;;;;11.75;5.07;;;;;;;10.09;100.00;99546.13;5059253;28;20025;-69
2023/03/09 09:19:16;;;;;;;11.85;2.97;;;;;;;10.05;100.00;99542.22;5071831;28;20491;-69
2023/03/09 09:21:42;;;;;;;8.18;3.75;;;;;;;10.04;100.00;99543.19;5063583;28;20372;-70
2023/03/09 09:24:08;;;;;;;15.43;3.33;;;;;;;10.06;100.00;99551.63;5066354;28;20033;-69
2023/03/09 09:26:34;;;;;;;10.45;3.92;;;;;;;10.07;100.00;99553.28;5045811;28;20112;-69
2023/03/09 09:29:01;;;;;;;11.82;3.70;;;;;;;10.08;100.00;99547.09;5045485;28;20047;-69
2023/03/09 09:31:27;;;;;;;7.97;3.13;;;;;;;10.08;100.00;99551.47;5071398;28;20115;-69
2023/03/09 09:33:53;;;;;;;11.43;3.20;;;;;;;10.12;100.00;99553.59;5046300;28;20044;-69
2023/03/09 09:36:19;;;;;;;16.65;3.92;;;;;;;10.14;100.00;99551.66;5052917;28;20033;-70
2023/03/09 09:38:45;;;;;;;10.50;3.45;;;;;;;10.18;100.00;99562.53;5044543;28;20040;-69
2023/03/09 09:41:19;;;;;;;11.65;3.85;;;;;;;10.18;100.00;99558.16;5071347;28;20040;-69
2023/03/09 09:43:47;;;;;;;14.02;3.83;;;;;;;10.19;100.00;99554.59;5056755;28;20453;-69
2023/03/09 09:46:15;;;;;;;16.83;3.42;;;;;;;10.22;100.00;99554.28;5055604;28;20390;-70
2023/03/09 09:48:43;;;;;;;12.25;3.85;;;;;;;10.26;100.00;99555.56;5046594;28;20388;-69
2023/03/09 09:51:26;;;;;;;14.75;4.88;;;;;;;10.35;100.00;99560.78;5047893;28;20033;-69
2023/03/09 09:54:06;;;;;;;12.52;4.55;;;;;;;10.42;100.00;99559.94;5047528;28;20397;-69
2023/03/09 09:56:50;;;;;;;9.93;3.60;;;;;;;10.39;100.00;99560.28;5057418;28;20068;-69
2023/03/09 09:59:38;;;;;;;11.38;4.22;;;;;;;10.39;100.00;99552.47;5064255;28;20025;-69
2023/03/09 10:02:10;;;;;;;12.40;3.45;;;;;;;10.44;100.00;99557.16;5061143;28;20028;-69
2023/03/09 10:04:48;;;;;;;11.63;2.65;;;;;;;10.44;100.00;99564.97;5063010;28;20028;-69
2023/03/09 10:07:20;;;;;;;13.90;4.13;;;;;;;10.44;100.00;99560.56;5056532;28;20487;-70
2023/03/09 10:09:58;;;;;;;9.48;3.17;;;;;;;10.53;100.00;99559.59;5051842;28;20033;-69
2023/03/09 10:12:23;;;;;;;10.40;2.95;;;;;;;10.61;100.00;99556.97;5056744;28;20094;-69
2023/03/09 10:15:04;;;;;;;13.98;4.18;;;;;;;10.78;100.00;99557.75;5054959;28;20041;-70
2023/03/09 10:17:39;;;;;;;13.55;4.38;;;;;;;10.88;100.00;99570.56;5050270;28;20036;-73
2023/03/09 10:20:22;;;;;;;12.98;7.35;;;;;;;10.84;100.00;99570.09;5061515;28;20086;-73
2023/03/09 10:22:50;;;;;;;15.77;10.05;;;;;;;10.81;100.00;99580.03;5061619;28;20035;-73
2023/03/09 10:25:20;;;;;;;13.40;7.30;;;;;;;10.81;100.00;99580.03;5057429;28;20029;-73
2023/03/09 10:28:04;;;;;;;14.05;6.35;;;;;;;10.76;100.00;99587.56;5064924;28;20044;-73
2023/03/09 10:30:44;;;;;;;13.77;4.80;;;;;;;10.78;100.00;99590.81;5045371;28;20043;-73
2023/03/09 10:33:37;;;;;;;13.70;4.03;;;;;;;10.79;100.00;99595.84;5049793;28;20029;-73
2023/03/09 10:36:18;;;;;;;15.82;3.42;;;;;;;10.82;100.00;99595.50;5059839;28;20036;-73
2023/03/09 10:38:43;;;;;;;12.73;3.33;;;;;;;10.92;100.00;99587.47;5038078;28;20119;-73
2023/03/09 10:41:17;;;;;;;9.32;2.92;;;;;;;10.91;100.00;99593.69;5047131;28;20143;-73
2023/03/09 10:43:43;;;;;;;13.07;4.20;;;;;;;10.95;100.00;99597.56;5048201;28;20511;-72
2023/03/09 10:46:24;;;;;;;12.85;5.13;;;;;;;11.03;100.00;99589.72;5044179;28;20466;-73
2023/03/09 10:49:20;;;;;;;17.45;5.05;;;;;;;11.09;100.00;99588.25;5042520;28;20043;-74
2023/03/09 10:52:05;;;;;;;11.68;3.33;;;;;;;11.14;100.00;99585.94;5052438;28;20045;-74
2023/03/09 10:54:40;;;;;;;16.20;3.40;;;;;;;11.24;100.00;99587.38;5026482;28;20037;-74
2023/03/09 10:57:33;;;;;;;11.65;2.72;;;;;;;11.32;100.00;99596.16;5038165;28;20099;-74
2023/03/09 11:00:14;;;;;;;12.55;2.10;;;;;;;11.31;100.00;99590.13;5036832;28;20297;-74
2023/03/09 11:02:54;;;;;;;10.35;3.17;;;;;;;11.25;100.00;99599.44;5048695;28;20044;-74
2023/03/09 11:05:25;;;;;;;10.75;2.55;;;;;;;11.26;100.00;99589.81;5036538;28;20036;-74
2023/03/09 11:07:53;;;;;;;10.93;3.90;;;;;;;11.37;100.00;99586.81;5055132;28;20044;-74
2023/03/09 11:10:33;;;;;;;16.25;3.45;;;;;;;11.59;100.00;99586.03;5056448;28;20307;-74
2023/03/09 11:13:01;;;;;;;8.40;2.30;;;;;;;11.60;100.00;99586.84;5044966;28;20036;-74
2023/03/09 11:15:34;;;;;;;10.07;2.80;;;;;;;11.66;100.00;99591.38;5044020;28;20500;-74
2023/03/09 11:18:02;;;;;;;11.77;2.83;;;;;;;11.67;100.00;99592.19;5046347;28;20041;-74
2023/03/09 11:20:28;;;;;;;8.93;2.00;;;;;;;11.70;100.00;99591.84;5043208;28;20025;-74
2023/03/09 11:23:18;;;;;;;13.52;2.00;;;;;;;11.84;100.00;99598.94;5044395;28;20029;-74
2023/03/09 11:26:06;;;;;;;8.90;2.05;;;;;;;11.86;100.00;99595.19;5042561;28;20025;-74